Time;durP1;ratioP1;P1;durP2;ratioP2;P2;SDS_P1;SDS_P2;PMS_P1;PMS_P2;Temp;Humidity;BMP_temperature;BMP_pressure;BME280_temperature;BME280_humidity;BME280_pressure;Samples;Min_cycle;Max_cycle;Signal;HPM_P1;HPM_P2
2024/01/12 00:00:07;;;;;;;86.13;47.93;;;;;;;-6.66;77.53;101804.47;2561315;28;20385;-82
2024/01/12 00:03:41;;;;;;;80.67;47.97;;;;;;;-6.67;77.21;101802.69;2560297;28;20289;-82
2024/01/12 00:04:54;;;;;;;79.40;44.33;;;;;;;-6.65;77.43;101812.97;2553419;28;20304;-81
2024/01/12 00:06:08;;;;;;;74.07;44.90;;;;;;;-6.63;77.36;101809.78;2559290;28;20314;-81
2024/01/12 00:07:22;;;;;;;76.63;43.17;;;;;;;-6.64;77.57;101809.66;2552919;28;20143;-82
2024/01/12 00:08:37;;;;;;;83.13;44.90;;;;;;;-6.60;77.30;101812.56;2562241;28;20331;-81
2024/01/12 00:09:50;;;;;;;81.70;46.03;;;;;;;-6.60;77.46;101810.03;2562163;28;20131;-82
2024/01/12 00:11:08;;;;;;;79.73;45.83;;;;;;;-6.60;77.31;101810.03;2561646;28;20282;-81
2024/01/12 00:12:21;;;;;;;87.83;45.60;;;;;;;-6.59;77.46;101808.38;2562094;28;20063;-81
2024/01/12 00:13:37;;;;;;;72.73;40.93;;;;;;;-6.57;77.58;101805.97;2562978;28;20322;-81
2024/01/12 00:14:51;;;;;;;76.53;43.93;;;;;;;-6.56;77.57;101807.72;2562763;28;20044;-80
2024/01/12 00:16:06;;;;;;;72.83;44.67;;;;;;;-6.54;77.56;101806.19;2564786;28;20320;-81
2024/01/12 00:17:19;;;;;;;77.87;46.07;;;;;;;-6.51;77.74;101806.44;2560552;28;20036;-82
2024/01/12 00:18:34;;;;;;;83.23;44.53;;;;;;;-6.50;77.59;101808.22;2560559;28;20355;-81
2024/01/12 00:19:48;;;;;;;67.63;40.60;;;;;;;-6.47;77.57;101813.53;2560177;28;20045;-81
2024/01/12 00:21:02;;;;;;;73.70;43.10;;;;;;;-6.45;77.79;101806.94;2560635;28;20314;-81
2024/01/12 00:22:15;;;;;;;77.83;45.07;;;;;;;-6.41;77.73;101824.16;2560372;28;20505;-82
2024/01/12 00:23:30;;;;;;;77.57;44.07;;;;;;;-6.40;77.67;101814.13;2560257;28;20310;-82
2024/01/12 00:24:43;;;;;;;73.00;45.90;;;;;;;-6.39;77.73;101817.56;2560532;28;20044;-82
2024/01/12 00:25:59;;;;;;;68.23;40.97;;;;;;;-6.40;77.44;101819.22;2560209;28;20796;-82
2024/01/12 00:27:13;;;;;;;69.30;43.70;;;;;;;-6.40;77.60;101813.22;2559802;28;20154;-83
2024/01/12 00:28:27;;;;;;;66.77;40.33;;;;;;;-6.39;77.84;101820.09;2559782;28;20714;-82
2024/01/12 00:29:42;;;;;;;74.33;40.30;;;;;;;-6.41;77.51;101817.44;2561072;28;20078;-82
2024/01/12 00:30:57;;;;;;;70.53;45.73;;;;;;;-6.42;77.61;101818.19;2559573;28;20301;-80
2024/01/12 00:32:11;;;;;;;70.17;40.57;;;;;;;-6.40;77.50;101818.31;2561309;28;20302;-81
2024/01/12 00:33:26;;;;;;;75.83;42.00;;;;;;;-6.39;77.67;101809.94;2559512;28;20299;-82
2024/01/12 00:34:39;;;;;;;71.80;42.23;;;;;;;-6.39;77.61;101818.44;2561450;28;20302;-82
2024/01/12 00:35:54;;;;;;;70.40;40.20;;;;;;;-6.38;77.87;101821.84;2553703;28;20343;-81
2024/01/12 00:37:07;;;;;;;72.30;39.93;;;;;;;-6.37;77.68;101828.72;2555684;28;20101;-82
2024/01/12 00:38:22;;;;;;;70.87;44.80;;;;;;;-6.36;77.55;101825.41;2557779;28;20328;-82
2024/01/12 00:39:36;;;;;;;71.40;41.63;;;;;;;-6.33;77.85;101825.66;2557297;28;20056;-82
2024/01/12 00:40:50;;;;;;;60.10;39.77;;;;;;;-6.30;77.64;101827.53;2557998;28;20338;-82
2024/01/12 00:42:05;;;;;;;70.33;41.17;;;;;;;-6.26;77.75;101832.97;2558761;28;20299;-81
2024/01/12 00:43:19;;;;;;;67.80;39.07;;;;;;;-6.26;77.64;101834.66;2557107;28;20803;-82
2024/01/12 00:44:33;;;;;;;71.30;41.83;;;;;;;-6.26;77.62;101832.97;2558052;28;20298;-84
2024/01/12 00:45:48;;;;;;;70.07;38.73;;;;;;;-6.25;77.64;101836.41;2557886;28;20729;-83
2024/01/12 00:47:02;;;;;;;78.50;40.43;;;;;;;-6.26;77.54;101843.16;2550378;28;20087;-83
2024/01/12 00:48:16;;;;;;;67.83;38.90;;;;;;;-6.28;77.61;101843.78;2555500;28;20299;-83
2024/01/12 00:49:30;;;;;;;69.20;40.27;;;;;;;-6.28;77.54;101839.59;2556952;28;20044;-84
2024/01/12 00:50:44;;;;;;;66.17;40.23;;;;;;;-6.29;77.61;101842.03;2556042;28;20317;-84
2024/01/12 00:51:58;;;;;;;66.30;40.47;;;;;;;-6.31;77.44;101838.47;2557149;28;20056;-83
2024/01/12 00:53:12;;;;;;;68.97;40.57;;;;;;;-6.33;77.55;101843.44;2556973;28;20310;-81
2024/01/12 00:54:26;;;;;;;60.47;39.27;;;;;;;-6.34;77.54;101851.81;2557992;28;20053;-82
2024/01/12 00:55:41;;;;;;;67.33;39.23;;;;;;;-6.36;77.48;101844.06;2558363;28;20347;-83
2024/01/12 00:56:54;;;;;;;72.17;41.57;;;;;;;-6.33;77.41;101842.53;2557922;28;20301;-80
2024/01/12 00:58:09;;;;;;;65.27;40.87;;;;;;;-6.34;77.50;101846.75;2558303;28;20381;-84
2024/01/12 00:59:23;;;;;;;69.60;39.13;;;;;;;-6.33;77.55;101840.00;2557093;28;20105;-84
2024/01/12 01:00:38;;;;;;;72.60;39.80;;;;;;;-6.35;77.50;101837.34;2562022;28;20310;-82
2024/01/12 01:01:57;;;;;;;60.13;37.20;;;;;;;-6.36;77.41;101833.03;2557751;28;20303;-81
2024/01/12 01:03:11;;;;;;;68.57;38.87;;;;;;;-6.36;77.58;101843.19;2556147;28;20856;-81
2024/01/12 01:04:25;;;;;;;64.60;38.93;;;;;;;-6.36;77.62;101835.56;2556465;28;20782;-82
2024/01/12 01:05:40;;;;;;;61.10;37.03;;;;;;;-6.34;77.54;101840.78;2557086;28;20383;-82
2024/01/12 01:06:53;;;;;;;64.80;41.10;;;;;;;-6.36;77.46;101833.91;2554947;28;20052;-81
2024/01/12 01:08:08;;;;;;;64.53;38.17;;;;;;;-6.36;77.66;101838.13;2555408;28;20774;-80
2024/01/12 01:09:21;;;;;;;74.17;40.20;;;;;;;-6.37;77.46;101831.28;2556791;28;20059;-80
2024/01/12 01:10:35;;;;;;;71.53;37.53;;;;;;;-6.39;77.30;101833.69;2557515;28;20385;-80
2024/01/12 01:11:52;;;;;;;57.90;36.10;;;;;;;-6.40;77.32;101836.09;2555663;28;20045;-81
2024/01/12 01:13:06;;;;;;;70.07;36.53;;;;;;;-6.41;77.22;101839.41;2555809;28;20302;-81
2024/01/12 01:14:22;;;;;;;60.57;37.00;;;;;;;-6.41;77.52;101836.88;2557128;28;20798;-80
2024/01/12 01:15:36;;;;;;;63.33;37.07;;;;;;;-6.41;77.43;101841.94;2556187;28;20318;-80
2024/01/12 01:16:50;;;;;;;58.23;37.60;;;;;;;-6.39;77.59;101841.28;2556009;28;20298;-80
2024/01/12 01:18:06;;;;;;;58.07;36.87;;;;;;;-6.33;77.49;101845.09;2555146;28;20660;-80
2024/01/12 01:19:20;;;;;;;66.77;39.17;;;;;;;-6.28;77.84;101847.22;2556047;28;20052;-82
2024/01/12 01:20:35;;;;;;;67.63;37.57;;;;;;;-6.24;77.66;101845.81;2556622;28;20830;-82
2024/01/12 01:21:48;;;;;;;61.67;37.77;;;;;;;-6.22;77.76;101852.78;2557416;28;20048;-80
2024/01/12 01:23:03;;;;;;;59.07;37.00;;;;;;;-6.20;77.76;101851.22;2556674;28;20332;-79
2024/01/12 01:24:17;;;;;;;60.17;40.70;;;;;;;-6.19;77.74;101847.94;2556569;28;20060;-80
2024/01/12 01:25:31;;;;;;;62.70;39.30;;;;;;;-6.18;77.49;101849.69;2556744;28;20736;-79
2024/01/12 01:26:46;;;;;;;68.13;37.83;;;;;;;-6.18;77.62;101859.00;2553302;28;20049;-80
2024/01/12 01:28:00;;;;;;;77.80;37.43;;;;;;;-6.14;77.76;101855.94;2554115;28;20302;-80
2024/01/12 01:29:14;;;;;;;69.47;42.30;;;;;;;-6.12;77.57;101859.44;2557616;28;20787;-80
2024/01/12 01:30:28;;;;;;;67.27;37.70;;;;;;;-6.13;77.53;101855.16;2558136;28;20309;-82
2024/01/12 01:31:42;;;;;;;64.77;39.00;;;;;;;-6.12;77.52;101859.44;2558075;28;20275;-81
2024/01/12 01:32:56;;;;;;;71.90;38.00;;;;;;;-6.13;77.50;101859.34;2557996;28;20044;-81
2024/01/12 01:34:11;;;;;;;65.03;39.50;;;;;;;-6.15;77.80;101861.75;2558969;28;20728;-82
2024/01/12 01:35:25;;;;;;;63.47;35.73;;;;;;;-6.17;77.42;101861.66;2558540;28;20040;-80
2024/01/12 01:36:39;;;;;;;60.87;35.30;;;;;;;-6.19;77.53;101855.56;2558793;28;20310;-82
2024/01/12 01:37:53;;;;;;;66.17;40.63;;;;;;;-6.19;77.51;101864.84;2555662;28;20049;-81
2024/01/12 01:39:08;;;;;;;65.77;37.80;;;;;;;-6.21;77.51;101859.63;2554662;28;20281;-81
2024/01/12 01:40:21;;;;;;;65.07;39.30;;;;;;;-6.25;77.38;101857.59;2556275;28;20116;-81
2024/01/12 01:41:36;;;;;;;60.77;36.80;;;;;;;-6.28;77.31;101859.03;2556464;28;20841;-80
2024/01/12 01:42:50;;;;;;;71.10;40.17;;;;;;;-6.31;77.30;101859.69;2555680;28;20045;-81
2024/01/12 01:44:05;;;;;;;64.87;40.47;;;;;;;-6.36;77.29;101866.06;2555950;28;20316;-80
2024/01/12 01:45:18;;;;;;;63.67;37.43;;;;;;;-6.39;77.24;101863.28;2556675;28;20053;-81
2024/01/12 01:46:33;;;;;;;78.47;45.47;;;;;;;-6.41;77.42;101859.72;2556513;28;20317;-80
2024/01/12 01:47:46;;;;;;;64.93;39.43;;;;;;;-6.46;77.27;101859.34;2556061;28;20041;-81
2024/01/12 01:49:01;;;;;;;74.43;40.73;;;;;;;-6.48;77.21;101863.44;2556894;28;20308;-81
2024/01/12 01:50:16;;;;;;;86.57;45.67;;;;;;;-6.50;77.21;101859.91;2557012;28;20524;-80
2024/01/12 01:51:30;;;;;;;68.93;44.17;;;;;;;-6.50;77.36;101864.09;2556157;28;20831;-80
2024/01/12 01:52:44;;;;;;;67.13;40.10;;;;;;;-6.50;77.30;101864.09;2557243;28;20294;-83
2024/01/12 01:53:58;;;;;;;65.90;37.83;;;;;;;-6.49;77.28;101869.28;2556404;28;20334;-80
2024/01/12 01:55:14;;;;;;;63.50;36.60;;;;;;;-6.50;77.27;101869.19;2556366;28;20518;-81
2024/01/12 01:56:28;;;;;;;66.20;39.17;;;;;;;-6.51;77.13;101858.09;2555030;28;20311;-80
2024/01/12 01:57:42;;;;;;;72.40;44.73;;;;;;;-6.53;77.22;101863.81;2548064;28;20792;-82
2024/01/12 01:58:57;;;;;;;74.93;42.70;;;;;;;-6.53;77.26;101868.91;2546933;28;20299;-80
2024/01/12 02:00:11;;;;;;;76.00;45.03;;;;;;;-6.54;77.37;101867.16;2555068;28;20048;-81
2024/01/12 02:01:25;;;;;;;66.63;38.87;;;;;;;-6.54;77.21;101864.59;2556622;28;20310;-81
2024/01/12 02:02:39;;;;;;;65.50;39.10;;;;;;;-6.54;77.37;101865.47;2556519;28;20063;-81
2024/01/12 02:03:54;;;;;;;74.33;40.00;;;;;;;-6.53;77.23;101868.91;2556987;28;20287;-81
2024/01/12 02:05:07;;;;;;;62.03;39.47;;;;;;;-6.55;77.35;101863.72;2557547;28;20072;-80
2024/01/12 02:06:23;;;;;;;76.00;40.60;;;;;;;-6.56;77.31;101867.00;2556993;28;20313;-82
2024/01/12 02:07:37;;;;;;;66.23;37.83;;;;;;;-6.57;77.36;101866.91;2556613;28;20413;-81
2024/01/12 02:08:51;;;;;;;68.07;40.23;;;;;;;-6.59;77.27;101864.22;2556976;28;20389;-83
2024/01/12 02:10:06;;;;;;;64.33;37.13;;;;;;;-6.59;77.38;101869.31;2556596;28;20044;-83
2024/01/12 02:11:20;;;;;;;68.73;41.57;;;;;;;-6.59;77.15;101875.25;2555377;28;20283;-81
2024/01/12 02:12:34;;;;;;;80.13;41.73;;;;;;;-6.61;77.21;101871.75;2554297;28;20302;-82
2024/01/12 02:13:48;;;;;;;63.50;39.50;;;;;;;-6.65;77.11;101869.72;2551056;28;20859;-81
2024/01/12 02:15:02;;;;;;;63.93;37.50;;;;;;;-6.67;77.38;101866.16;2549367;28;20048;-82
2024/01/12 02:16:17;;;;;;;67.20;39.40;;;;;;;-6.70;77.14;101863.38;2555086;28;20307;-81
2024/01/12 02:17:31;;;;;;;63.63;36.33;;;;;;;-6.74;77.12;101865.53;2555636;28;20045;-81
2024/01/12 02:18:45;;;;;;;60.47;38.87;;;;;;;-6.80;77.10;101866.81;2557067;28;20301;-81
2024/01/12 02:19:59;;;;;;;64.17;41.77;;;;;;;-6.84;77.03;101861.38;2555787;28;20056;-81
2024/01/12 02:21:14;;;;;;;64.23;37.17;;;;;;;-6.89;77.18;101872.81;2558070;28;20302;-81
2024/01/12 02:22:28;;;;;;;69.87;40.10;;;;;;;-6.93;77.05;101866.59;2556963;28;20045;-81
2024/01/12 02:23:42;;;;;;;63.60;39.97;;;;;;;-6.96;77.04;101870.56;2558043;28;20861;-82
2024/01/12 02:24:56;;;;;;;64.80;39.70;;;;;;;-6.98;77.03;101860.25;2556688;28;20052;-81
2024/01/12 02:26:10;;;;;;;65.63;36.13;;;;;;;-6.99;77.31;101867.78;2558039;28;20375;-81
2024/01/12 02:27:24;;;;;;;66.37;36.90;;;;;;;-7.02;77.22;101861.69;2556195;28;20048;-81
2024/01/12 02:28:38;;;;;;;68.90;39.20;;;;;;;-7.02;77.26;101860.81;2558770;28;20390;-81
2024/01/12 02:29:52;;;;;;;68.63;39.30;;;;;;;-7.03;77.15;101859.00;2556912;28;20053;-81
2024/01/12 02:31:07;;;;;;;59.93;37.57;;;;;;;-7.05;77.09;101853.81;2557827;28;20354;-82
2024/01/12 02:32:20;;;;;;;74.53;42.23;;;;;;;-7.07;77.15;101855.34;2557673;28;20052;-81
2024/01/12 02:33:34;;;;;;;60.67;41.17;;;;;;;-7.10;77.11;101862.72;2557767;28;20381;-82
2024/01/12 02:34:48;;;;;;;64.63;40.47;;;;;;;-7.12;76.96;101851.53;2557864;28;20044;-81
2024/01/12 02:36:02;;;;;;;65.57;38.10;;;;;;;-7.15;77.10;101858.91;2557778;28;20302;-82
2024/01/12 02:37:17;;;;;;;71.13;39.70;;;;;;;-7.18;77.11;101861.16;2560212;28;20362;-81
2024/01/12 02:38:32;;;;;;;61.27;40.00;;;;;;;-7.20;77.11;101859.28;2560608;28;20307;-81
2024/01/12 02:39:45;;;;;;;66.63;40.63;;;;;;;-7.22;77.04;101865.91;2560510;28;20807;-83
2024/01/12 02:40:59;;;;;;;68.27;39.60;;;;;;;-7.25;77.09;101869.06;2560847;28;20374;-83
2024/01/12 02:42:13;;;;;;;64.87;40.23;;;;;;;-7.28;77.07;101868.78;2561461;28;20048;-82
2024/01/12 02:43:27;;;;;;;69.63;37.97;;;;;;;-7.31;77.04;101868.53;2560972;28;20795;-83
2024/01/12 02:44:41;;;;;;;77.67;41.10;;;;;;;-7.34;77.59;101865.75;2557401;28;20063;-83
2024/01/12 02:45:55;;;;;;;78.57;42.37;;;;;;;-7.33;77.24;101867.53;2561679;28;20306;-83
2024/01/12 02:47:12;;;;;;;68.40;39.87;;;;;;;-7.35;77.24;101867.41;2560738;28;20047;-82
2024/01/12 02:48:26;;;;;;;70.00;41.20;;;;;;;-7.35;77.35;101866.53;2561403;28;20366;-82
2024/01/12 02:49:39;;;;;;;69.70;40.53;;;;;;;-7.35;77.18;101864.00;2562324;28;20290;-83
2024/01/12 02:50:54;;;;;;;69.37;38.17;;;;;;;-7.37;77.30;101863.84;2560930;28;20394;-83
2024/01/12 02:52:07;;;;;;;67.03;41.50;;;;;;;-7.37;77.33;101871.47;2561754;28;20056;-82
2024/01/12 02:53:23;;;;;;;61.53;38.63;;;;;;;-7.37;77.25;101871.47;2562249;28;20390;-82
2024/01/12 02:54:36;;;;;;;64.70;40.73;;;;;;;-7.40;77.19;101871.22;2562218;28;20036;-82
2024/01/12 02:55:51;;;;;;;77.60;44.47;;;;;;;-7.39;77.33;101865.38;2562116;28;20359;-81
2024/01/12 02:57:04;;;;;;;66.73;39.17;;;;;;;-7.41;77.22;101863.47;2565268;28;20049;-82
2024/01/12 02:58:19;;;;;;;67.17;39.47;;;;;;;-7.43;77.26;101859.91;2559521;28;20366;-81
2024/01/12 02:59:32;;;;;;;78.77;40.40;;;;;;;-7.44;77.25;101861.56;2558182;28;20044;-82
2024/01/12 03:00:47;;;;;;;65.10;40.87;;;;;;;-7.44;77.25;101865.75;2560135;28;20330;-81
2024/01/12 03:02:00;;;;;;;64.43;38.20;;;;;;;-7.47;77.32;101853.72;2560652;28;20052;-81
2024/01/12 03:03:15;;;;;;;61.43;37.80;;;;;;;-7.50;77.33;101859.41;2560288;28;20335;-82
2024/01/12 03:04:28;;;;;;;70.10;42.93;;;;;;;-7.51;77.16;101847.50;2551659;28;20053;-82
2024/01/12 03:05:42;;;;;;;73.00;38.07;;;;;;;-7.52;77.32;101853.31;2560320;28;20739;-81
2024/01/12 03:06:56;;;;;;;70.37;40.90;;;;;;;-7.53;77.45;101849.03;2558618;28;20055;-81
2024/01/12 03:08:12;;;;;;;66.23;39.97;;;;;;;-7.55;77.52;101850.53;2559862;28;20409;-82
2024/01/12 03:09:27;;;;;;;68.10;40.03;;;;;;;-7.56;77.44;101837.72;2559120;28;20052;-81
2024/01/12 03:10:41;;;;;;;69.00;39.73;;;;;;;-7.57;77.44;101828.34;2560418;28;20362;-81
2024/01/12 03:11:54;;;;;;;66.30;42.17;;;;;;;-7.58;77.33;101835.09;2558024;28;20275;-81
2024/01/12 03:13:09;;;;;;;62.07;37.27;;;;;;;-7.58;77.55;101841.81;2559688;28;20382;-81
2024/01/12 03:14:22;;;;;;;66.97;38.23;;;;;;;-7.61;77.56;101842.44;2558776;28;20060;-81
2024/01/12 03:15:37;;;;;;;72.60;40.93;;;;;;;-7.60;77.45;101843.31;2559188;28;20358;-82
2024/01/12 03:16:50;;;;;;;69.07;41.23;;;;;;;-7.60;77.51;101844.19;2559047;28;20044;-81
2024/01/12 03:18:05;;;;;;;73.13;42.13;;;;;;;-7.62;77.36;101837.22;2559460;28;20350;-81
2024/01/12 03:19:18;;;;;;;66.47;40.30;;;;;;;-7.62;77.40;101842.28;2558260;28;20047;-81
2024/01/12 03:20:33;;;;;;;65.37;39.30;;;;;;;-7.62;77.46;101833.03;2559293;28;20347;-82
2024/01/12 03:21:46;;;;;;;70.03;39.83;;;;;;;-7.63;77.56;101835.47;2559098;28;20053;-82
2024/01/12 03:23:01;;;;;;;72.50;41.73;;;;;;;-7.68;77.45;101841.03;2558869;28;20389;-82
2024/01/12 03:24:14;;;;;;;65.63;40.90;;;;;;;-7.71;77.50;101829.75;2558320;28;20124;-82
2024/01/12 03:25:30;;;;;;;65.37;37.50;;;;;;;-7.73;77.51;101832.16;2557034;28;20316;-82
2024/01/12 03:26:43;;;;;;;76.53;40.17;;;;;;;-7.72;77.61;101827.97;2558183;28;20061;-81
2024/01/12 03:27:59;;;;;;;59.10;38.97;;;;;;;-7.73;77.49;101828.72;2557581;28;20871;-82
2024/01/12 03:29:12;;;;;;;68.97;43.03;;;;;;;-7.73;77.68;101828.72;2559030;28;20059;-82
2024/01/12 03:30:26;;;;;;;69.93;41.83;;;;;;;-7.73;77.52;101828.72;2557076;28;20373;-81
2024/01/12 03:31:40;;;;;;;66.97;39.13;;;;;;;-7.74;77.64;101821.91;2558225;28;20045;-81
2024/01/12 03:32:54;;;;;;;71.77;40.50;;;;;;;-7.75;77.67;101820.09;2553065;28;20314;-80
2024/01/12 03:34:08;;;;;;;78.63;40.50;;;;;;;-7.76;77.71;101821.75;2555811;28;20097;-80
2024/01/12 03:35:22;;;;;;;72.17;39.27;;;;;;;-7.78;78.04;101823.28;2557771;28;20282;-82
2024/01/12 03:36:36;;;;;;;63.73;41.43;;;;;;;-7.79;77.65;101823.16;2558677;28;20044;-81
2024/01/12 03:37:50;;;;;;;66.17;40.43;;;;;;;-7.81;77.54;101828.09;2557826;28;20358;-82
2024/01/12 03:39:04;;;;;;;71.03;39.00;;;;;;;-7.81;77.61;101822.16;2559368;28;20059;-81
2024/01/12 03:40:19;;;;;;;71.57;41.20;;;;;;;-7.82;77.77;101822.88;2559938;28;20342;-83
2024/01/12 03:41:33;;;;;;;72.27;41.03;;;;;;;-7.85;77.35;101818.44;2560253;28;20351;-82
2024/01/12 03:42:48;;;;;;;71.07;39.40;;;;;;;-7.87;77.55;101820.00;2559488;28;20333;-82
2024/01/12 03:44:01;;;;;;;66.83;38.50;;;;;;;-7.91;77.33;101820.47;2560345;28;20294;-82
2024/01/12 03:45:16;;;;;;;71.57;40.07;;;;;;;-7.91;77.69;101823.88;2560403;28;20307;-82
2024/01/12 03:46:29;;;;;;;72.33;42.27;;;;;;;-7.91;77.57;101817.94;2559973;28;20052;-82
2024/01/12 03:47:44;;;;;;;74.17;39.73;;;;;;;-7.89;77.54;101826.56;2556748;28;21168;-81
2024/01/12 03:48:57;;;;;;;73.57;39.97;;;;;;;-7.89;77.70;101821.50;2553041;28;20045;-82
2024/01/12 03:50:12;;;;;;;69.47;41.90;;;;;;;-7.91;77.77;101823.88;2559021;28;20378;-81
2024/01/12 03:51:25;;;;;;;61.87;38.53;;;;;;;-7.91;77.58;101821.34;2557709;28;20406;-81
2024/01/12 03:52:40;;;;;;;76.83;41.47;;;;;;;-7.91;77.90;101817.94;2558512;28;20341;-81
2024/01/12 03:53:53;;;;;;;70.20;39.87;;;;;;;-7.90;77.75;101818.09;2553751;28;20526;-81
2024/01/12 03:55:08;;;;;;;75.70;44.03;;;;;;;-7.88;77.91;101822.38;2554023;28;20283;-81
2024/01/12 03:56:22;;;;;;;76.47;41.67;;;;;;;-7.85;77.88;101820.97;2548604;28;20415;-81
2024/01/12 03:57:37;;;;;;;64.07;38.47;;;;;;;-7.86;77.96;101825.94;2556715;28;20329;-81
2024/01/12 03:58:51;;;;;;;69.13;36.87;;;;;;;-7.89;77.79;101821.50;2550042;28;20044;-82
2024/01/12 04:00:08;;;;;;;67.47;38.83;;;;;;;-7.92;77.64;101824.66;2558862;28;20311;-81
2024/01/12 04:01:22;;;;;;;70.53;36.87;;;;;;;-7.93;77.68;101830.47;2557762;28;20116;-81
2024/01/12 04:02:37;;;;;;;64.63;38.50;;;;;;;-7.94;77.81;101830.34;2551051;28;20307;-82
2024/01/12 04:03:50;;;;;;;67.53;42.07;;;;;;;-7.99;77.78;101824.91;2556834;28;20279;-81
2024/01/12 04:05:06;;;;;;;74.10;42.73;;;;;;;-7.99;77.93;101822.38;2559048;28;20317;-82
2024/01/12 04:06:19;;;;;;;72.00;38.47;;;;;;;-8.00;77.75;101825.66;2557771;28;20048;-81
2024/01/12 04:07:33;;;;;;;74.67;41.83;;;;;;;-8.00;77.70;101818.06;2557317;28;20330;-82
2024/01/12 04:08:47;;;;;;;73.23;40.50;;;;;;;-7.98;77.60;101821.59;2557757;28;20438;-81
2024/01/12 04:10:01;;;;;;;68.87;41.53;;;;;;;-7.97;77.94;101827.56;2559080;28;20354;-82
2024/01/12 04:11:21;;;;;;;68.33;39.93;;;;;;;-7.96;77.98;101817.53;2556279;28;20040;-81
2024/01/12 04:12:35;;;;;;;73.43;42.53;;;;;;;-7.99;77.58;101819.81;2558521;28;20751;-82
2024/01/12 04:13:50;;;;;;;66.70;41.47;;;;;;;-7.98;77.63;101813.09;2554491;28;20299;-82
2024/01/12 04:15:06;;;;;;;70.67;43.00;;;;;;;-7.99;77.86;101814.75;2552529;28;20279;-82
2024/01/12 04:16:21;;;;;;;65.80;40.83;;;;;;;-8.00;77.62;101825.66;2549248;28;20382;-82
2024/01/12 04:17:35;;;;;;;63.30;39.33;;;;;;;-8.00;78.04;101827.28;2555725;28;20302;-81
2024/01/12 04:18:49;;;;;;;63.70;39.13;;;;;;;-8.02;77.90;101823.75;2547719;28;20045;-82
2024/01/12 04:20:04;;;;;;;75.43;41.13;;;;;;;-8.03;77.82;101829.56;2553409;28;20303;-83
2024/01/12 04:21:17;;;;;;;61.43;40.73;;;;;;;-8.03;77.52;101821.97;2559309;28;20044;-81
2024/01/12 04:22:32;;;;;;;68.23;44.43;;;;;;;-8.05;77.54;101824.41;2557910;28;20310;-83
2024/01/12 04:23:45;;;;;;;79.20;47.17;;;;;;;-8.05;77.65;101824.41;2558282;28;20052;-83
2024/01/12 04:25:00;;;;;;;62.57;37.70;;;;;;;-8.05;77.68;101829.47;2557014;28;20385;-83
2024/01/12 04:26:13;;;;;;;72.93;45.97;;;;;;;-8.03;78.02;101835.50;2558646;28;20059;-81
2024/01/12 04:27:29;;;;;;;64.93;36.70;;;;;;;-8.00;77.91;101827.28;2556699;28;20365;-81
2024/01/12 04:28:42;;;;;;;69.67;41.80;;;;;;;-7.99;77.63;101821.47;2558678;28;20044;-82
2024/01/12 04:29:58;;;;;;;73.43;41.77;;;;;;;-7.96;77.67;101825.16;2557729;28;20529;-82
2024/01/12 04:31:12;;;;;;;68.33;37.43;;;;;;;-7.96;78.13;101824.28;2558164;28;20048;-82
2024/01/12 04:32:27;;;;;;;65.03;40.53;;;;;;;-7.97;77.83;101830.09;2557806;28;20887;-82
2024/01/12 04:33:40;;;;;;;69.83;40.70;;;;;;;-8.00;77.81;101823.13;2550903;28;20474;-81
2024/01/12 04:34:55;;;;;;;64.97;40.10;;;;;;;-8.01;77.88;101828.94;2558558;28;20330;-81
2024/01/12 04:36:08;;;;;;;72.27;41.00;;;;;;;-7.99;77.71;101826.56;2559743;28;20048;-82
2024/01/12 04:37:23;;;;;;;69.03;39.50;;;;;;;-7.99;77.90;101819.81;2558579;28;20366;-82
2024/01/12 04:38:36;;;;;;;67.90;39.00;;;;;;;-7.95;77.96;101826.03;2558848;28;20048;-81
2024/01/12 04:39:50;;;;;;;69.63;42.27;;;;;;;-7.92;77.77;101833.91;2557924;28;20369;-81
2024/01/12 04:41:04;;;;;;;74.13;39.60;;;;;;;-7.87;77.84;101829.22;2557418;28;20048;-81
2024/01/12 04:42:19;;;;;;;67.47;40.53;;;;;;;-7.87;77.93;101825.06;2552249;28;20421;-80
2024/01/12 04:43:32;;;;;;;66.37;40.97;;;;;;;-7.85;77.83;101833.66;2557099;28;20040;-81
2024/01/12 04:44:46;;;;;;;68.40;40.83;;;;;;;-7.85;77.90;101833.66;2558579;28;20329;-81
2024/01/12 04:46:02;;;;;;;61.10;37.90;;;;;;;-7.85;77.96;101833.66;2558591;28;20049;-82
2024/01/12 04:47:16;;;;;;;66.97;39.57;;;;;;;-7.85;77.96;101825.16;2557779;28;20277;-83
2024/01/12 04:48:30;;;;;;;72.83;38.13;;;;;;;-7.85;78.03;101828.56;2558213;28;20306;-82
2024/01/12 04:49:44;;;;;;;65.53;39.47;;;;;;;-7.85;77.88;101822.63;2558305;28;20358;-82
2024/01/12 04:50:58;;;;;;;60.50;37.43;;;;;;;-7.85;78.13;101826.03;2558463;28;20055;-82
2024/01/12 04:52:12;;;;;;;72.43;40.43;;;;;;;-7.83;77.92;101833.78;2558839;28;20413;-81
2024/01/12 04:53:25;;;;;;;76.57;42.10;;;;;;;-7.82;78.06;101828.88;2558160;28;20417;-82
2024/01/12 04:54:40;;;;;;;68.17;39.33;;;;;;;-7.81;78.03;101829.75;2559162;28;20353;-82
2024/01/12 04:55:53;;;;;;;64.80;38.33;;;;;;;-7.79;77.96;101831.66;2557820;28;20055;-82
2024/01/12 04:57:08;;;;;;;64.97;36.73;;;;;;;-7.74;78.10;101827.84;2559023;28;20370;-82
2024/01/12 04:58:21;;;;;;;67.70;39.67;;;;;;;-7.68;78.08;101837.59;2550788;28;20048;-82
2024/01/12 04:59:36;;;;;;;69.53;38.73;;;;;;;-7.62;78.17;101844.81;2549366;28;20370;-82
2024/01/12 05:00:49;;;;;;;61.03;38.70;;;;;;;-7.60;78.14;101831.53;2556508;28;20083;-82
2024/01/12 05:02:05;;;;;;;67.37;38.37;;;;;;;-7.56;78.37;101831.03;2553766;28;20314;-82
2024/01/12 05:03:18;;;;;;;73.40;40.20;;;;;;;-7.52;78.23;101833.03;2558137;28;20068;-81
2024/01/12 05:04:33;;;;;;;62.87;38.20;;;;;;;-7.48;78.15;101837.63;2558292;28;20867;-81
2024/01/12 05:05:46;;;;;;;69.20;38.57;;;;;;;-7.45;78.14;101831.91;2558811;28;20062;-82
2024/01/12 05:07:01;;;;;;;74.27;42.53;;;;;;;-7.42;77.95;101838.88;2553929;28;20733;-81
2024/01/12 05:08:14;;;;;;;69.83;41.43;;;;;;;-7.41;78.26;101839.00;2555129;28;20059;-81
2024/01/12 05:09:30;;;;;;;68.53;40.87;;;;;;;-7.38;78.17;101839.28;2559125;28;20346;-82
2024/01/12 05:10:43;;;;;;;58.53;41.27;;;;;;;-7.37;77.79;101841.03;2558490;28;20075;-82
2024/01/12 05:11:59;;;;;;;77.73;43.20;;;;;;;-7.35;77.90;101834.44;2559067;28;20377;-81
2024/01/12 05:13:12;;;;;;;77.97;41.73;;;;;;;-7.34;78.19;101838.75;2558737;28;20502;-81
2024/01/12 05:14:27;;;;;;;68.93;39.20;;;;;;;-7.30;78.17;101837.38;2558769;28;20314;-81
2024/01/12 05:15:40;;;;;;;61.90;39.20;;;;;;;-7.27;78.16;101832.53;2560508;28;20055;-81
2024/01/12 05:16:55;;;;;;;61.80;39.37;;;;;;;-7.25;78.15;101836.09;2560465;28;20330;-81
2024/01/12 05:18:09;;;;;;;75.10;43.00;;;;;;;-7.23;78.10;101837.06;2561164;28;20048;-82
2024/01/12 05:19:24;;;;;;;77.23;44.83;;;;;;;-7.21;78.22;101838.09;2560348;28;20377;-81
2024/01/12 05:20:37;;;;;;;63.20;38.73;;;;;;;-7.19;78.42;101846.72;2561129;28;20294;-81
2024/01/12 05:21:52;;;;;;;68.10;37.80;;;;;;;-7.17;78.29;101844.31;2561263;28;20370;-81
2024/01/12 05:23:05;;;;;;;78.37;41.40;;;;;;;-7.15;78.43;101848.75;2560583;28;20047;-81
2024/01/12 05:24:20;;;;;;;74.83;38.80;;;;;;;-7.11;78.29;101854.97;2553976;28;20390;-81
2024/01/12 05:25:33;;;;;;;66.27;39.03;;;;;;;-7.09;78.54;101848.38;2560294;28;20045;-82
2024/01/12 05:26:48;;;;;;;74.83;41.00;;;;;;;-7.09;78.34;101850.91;2560913;28;20317;-81
2024/01/12 05:28:01;;;;;;;66.30;40.40;;;;;;;-7.07;78.30;101857.00;2561520;28;20045;-80
2024/01/12 05:29:15;;;;;;;63.20;36.83;;;;;;;-7.06;78.28;101856.22;2561593;28;20441;-82
2024/01/12 05:30:29;;;;;;;65.27;38.40;;;;;;;-7.04;78.41;101860.66;2561303;28;20063;-83
2024/01/12 05:31:44;;;;;;;68.17;40.83;;;;;;;-7.01;78.30;101847.34;2561596;28;20314;-82
2024/01/12 05:32:57;;;;;;;73.93;43.00;;;;;;;-6.99;78.49;101857.63;2561960;28;20048;-83
2024/01/12 05:34:13;;;;;;;66.00;41.77;;;;;;;-6.97;78.57;101851.88;2562134;28;20338;-83
2024/01/12 05:35:26;;;;;;;65.43;39.57;;;;;;;-6.94;78.48;101851.25;2553900;28;20056;-80
2024/01/12 05:36:41;;;;;;;68.43;42.00;;;;;;;-6.92;78.38;101857.34;2562951;28;20358;-80
2024/01/12 05:37:55;;;;;;;79.10;42.60;;;;;;;-6.90;78.42;101860.88;2560547;28;20044;-81
2024/01/12 05:39:09;;;;;;;71.27;43.20;;;;;;;-6.91;78.41;101859.13;2559805;28;20285;-82